Time;durP1;ratioP1;P1;durP2;ratioP2;P2;SDS_P1;SDS_P2;PMS_P1;PMS_P2;Temp;Humidity;BMP_temperature;BMP_pressure;BME280_temperature;BME280_humidity;BME280_pressure;Samples;Min_cycle;Max_cycle;Signal;HPM_P1;HPM_P2
2022/10/09 00:01:07;;;;;;;1999.90;999.90;;;;;;;12.31;100.00;98470.13;4967487;28;20027;-79
2022/10/09 00:03:34;;;;;;;1999.90;999.90;;;;;;;12.27;100.00;98458.94;4976767;28;20058;-77
2022/10/09 00:05:59;;;;;;;1999.90;999.90;;;;;;;12.33;100.00;98457.78;4976057;28;20030;-78
2022/10/09 00:08:25;;;;;;;1999.90;999.90;;;;;;;12.30;100.00;98458.34;4972666;28;20031;-77
2022/10/09 00:10:50;;;;;;;1999.90;999.90;;;;;;;12.35;100.00;98473.91;4974082;28;20035;-78
2022/10/09 00:13:16;;;;;;;1999.90;999.90;;;;;;;12.37;100.00;98474.47;4974144;28;20030;-77
2022/10/09 00:15:43;;;;;;;1999.90;999.90;;;;;;;12.32;100.00;98489.03;4973958;28;20037;-78
2022/10/09 00:18:11;;;;;;;1999.90;999.90;;;;;;;12.29;100.00;98483.31;4973991;28;20027;-78
2022/10/09 00:20:39;;;;;;;1999.90;999.90;;;;;;;12.30;100.00;98485.78;4974115;28;20089;-77
2022/10/09 00:23:05;;;;;;;1999.90;999.90;;;;;;;12.31;100.00;98481.09;4974209;28;20038;-77
2022/10/09 00:25:31;;;;;;;1999.90;999.90;;;;;;;12.35;100.00;98487.63;4977101;28;20038;-78
2022/10/09 00:27:57;;;;;;;1999.90;999.90;;;;;;;12.41;100.00;98485.63;4982271;28;20022;-78
2022/10/09 00:30:22;;;;;;;1999.90;999.90;;;;;;;12.36;100.00;98489.28;4975505;28;20034;-78
2022/10/09 00:32:47;;;;;;;1999.90;999.90;;;;;;;12.45;100.00;98493.00;4973962;28;20027;-78
2022/10/09 00:35:13;;;;;;;1999.90;999.90;;;;;;;12.50;100.00;98495.66;4973654;28;20019;-77
2022/10/09 00:37:38;;;;;;;1999.90;999.90;;;;;;;12.56;100.00;98491.75;4973456;28;20369;-77
2022/10/09 00:40:04;;;;;;;1999.90;999.90;;;;;;;12.59;100.00;98499.38;4973155;28;20389;-78
2022/10/09 00:42:29;;;;;;;1999.90;999.90;;;;;;;12.49;100.00;98488.56;4973241;28;20041;-77
2022/10/09 00:44:58;;;;;;;1999.90;999.90;;;;;;;12.54;100.00;98493.97;4973503;28;20030;-77
2022/10/09 00:47:29;;;;;;;1999.90;999.90;;;;;;;12.57;100.00;98492.56;4973812;28;20081;-77
2022/10/09 00:50:20;;;;;;;1999.90;999.90;;;;;;;12.63;100.00;98491.38;4973186;28;20033;-77
2022/10/09 00:52:49;;;;;;;1999.90;999.90;;;;;;;12.64;100.00;98491.09;4973315;28;20073;-76
2022/10/09 00:55:15;;;;;;;1999.90;999.90;;;;;;;12.70;100.00;98489.09;4973173;28;20041;-77
2022/10/09 00:57:42;;;;;;;1999.90;999.90;;;;;;;12.71;100.00;98488.81;4973023;28;20026;-77
2022/10/09 01:00:10;;;;;;;1999.90;999.90;;;;;;;12.73;100.00;98489.31;4973360;28;20039;-77
2022/10/09 01:02:36;;;;;;;1999.90;999.90;;;;;;;12.78;100.00;98483.75;4972813;28;20121;-77
2022/10/09 01:05:02;;;;;;;1999.90;999.90;;;;;;;12.78;100.00;98491.19;4973093;28;20539;-77
2022/10/09 01:07:57;;;;;;;1999.90;999.90;;;;;;;12.84;100.00;98479.81;4972830;28;20519;-77
2022/10/09 01:10:32;;;;;;;1999.90;999.90;;;;;;;12.92;100.00;98488.50;4972868;28;20106;-77
2022/10/09 01:13:07;;;;;;;1999.90;999.90;;;;;;;12.99;100.00;98491.69;4972676;28;20035;-77
2022/10/09 01:15:49;;;;;;;1999.90;999.90;;;;;;;13.05;100.00;98485.84;4972943;28;20038;-77
2022/10/09 01:18:23;;;;;;;1999.90;999.90;;;;;;;13.02;100.00;98491.09;4972971;28;20042;-77
2022/10/09 01:20:53;;;;;;;1999.90;999.90;;;;;;;13.03;100.00;98487.25;4972695;28;20042;-77
2022/10/09 01:23:39;;;;;;;1999.90;999.90;;;;;;;13.03;100.00;98482.56;4972827;28;20101;-78
2022/10/09 01:26:30;;;;;;;1999.90;999.90;;;;;;;13.02;100.00;98489.19;4972603;28;20034;-78
2022/10/09 01:29:01;;;;;;;1999.90;999.90;;;;;;;12.92;100.00;98483.00;4972472;28;20035;-77
2022/10/09 01:31:31;;;;;;;1999.90;999.90;;;;;;;12.86;100.00;98485.84;4972611;28;20023;-76
2022/10/09 01:33:59;;;;;;;1999.90;999.90;;;;;;;12.87;100.00;98484.72;4972326;28;20034;-78
2022/10/09 01:36:27;;;;;;;1999.90;999.90;;;;;;;12.79;100.00;98482.66;4972342;28;20038;-78
2022/10/09 01:38:53;;;;;;;1999.90;999.90;;;;;;;12.79;100.00;98487.31;4972074;28;20035;-77
2022/10/09 01:41:19;;;;;;;1999.90;999.90;;;;;;;12.91;100.00;98479.44;4972096;28;20027;-77
2022/10/09 01:43:44;;;;;;;1999.90;999.90;;;;;;;12.89;100.00;98479.75;4972437;28;20444;-78
2022/10/09 01:46:26;;;;;;;1999.90;999.90;;;;;;;12.92;100.00;98491.25;4971420;28;20061;-78
2022/10/09 01:49:16;;;;;;;1999.90;999.90;;;;;;;12.92;100.00;98483.84;4972336;28;20027;-77
2022/10/09 01:52:11;;;;;;;1999.90;999.90;;;;;;;12.94;100.00;98487.09;4972335;28;20039;-78
2022/10/09 01:54:42;;;;;;;1999.90;999.90;;;;;;;12.90;100.00;98489.59;4972589;28;20034;-78
2022/10/09 01:57:10;;;;;;;1999.90;999.90;;;;;;;12.92;100.00;98483.00;4972411;28;20030;-79
2022/10/09 01:59:40;;;;;;;1999.90;999.90;;;;;;;12.96;100.00;98484.06;4972221;28;20472;-78
2022/10/09 02:02:07;;;;;;;1999.90;999.90;;;;;;;12.96;100.00;98492.28;4972529;28;20081;-78
2022/10/09 02:04:35;;;;;;;1999.90;999.90;;;;;;;12.90;100.00;98488.81;4972273;28;20431;-79
2022/10/09 02:07:01;;;;;;;1999.90;999.90;;;;;;;12.88;100.00;98488.28;4972431;28;20057;-78
2022/10/09 02:09:28;;;;;;;1999.90;999.90;;;;;;;12.86;100.00;98490.50;4972505;28;20110;-78
2022/10/09 02:11:59;;;;;;;1999.90;999.90;;;;;;;12.86;100.00;98494.09;4972612;28;20027;-78
2022/10/09 02:14:24;;;;;;;1999.90;999.90;;;;;;;12.85;100.00;98497.94;4972274;28;20037;-78
2022/10/09 02:17:04;;;;;;;1999.90;999.90;;;;;;;12.89;100.00;98496.22;4981636;28;20026;-76
2022/10/09 02:19:45;;;;;;;1999.90;999.90;;;;;;;12.89;100.00;98493.50;4979797;28;20661;-77
2022/10/09 02:22:30;;;;;;;1999.90;999.90;;;;;;;12.90;100.00;98497.84;4971979;28;20031;-77
2022/10/09 02:24:58;;;;;;;1999.90;999.90;;;;;;;12.94;100.00;98497.28;4982102;28;20041;-77
2022/10/09 02:27:24;;;;;;;1999.90;999.90;;;;;;;13.01;100.00;98501.28;4993750;28;20511;-77
2022/10/09 02:29:51;;;;;;;1999.90;999.90;;;;;;;13.09;100.00;98497.06;4996759;28;20138;-78
2022/10/09 02:32:17;;;;;;;1999.90;999.90;;;;;;;13.13;100.00;98498.09;4995634;28;20029;-78
2022/10/09 02:34:42;;;;;;;1999.90;999.90;;;;;;;13.14;100.00;98506.06;4990561;28;20081;-78
2022/10/09 02:37:08;;;;;;;1999.90;999.90;;;;;;;13.04;100.00;98486.13;4976480;28;20027;-79
2022/10/09 02:39:33;;;;;;;1999.90;999.90;;;;;;;13.10;100.00;98493.19;4980085;28;20035;-79
2022/10/09 02:41:59;;;;;;;1999.90;999.90;;;;;;;13.11;100.00;98497.59;4972494;28;20030;-76
2022/10/09 02:44:26;;;;;;;1999.90;999.90;;;;;;;13.17;100.00;98499.13;4972494;28;20085;-79
2022/10/09 02:46:51;;;;;;;1999.90;999.90;;;;;;;13.18;100.00;98500.78;4972815;28;20039;-77
2022/10/09 02:49:17;;;;;;;1999.90;999.90;;;;;;;13.18;100.00;98506.28;4972245;28;20058;-76
2022/10/09 02:51:42;;;;;;;1999.90;999.90;;;;;;;13.23;100.00;98503.44;4972737;28;20027;-78
2022/10/09 02:54:08;;;;;;;1999.90;999.90;;;;;;;13.24;100.00;98510.56;4971291;28;20035;-80
2022/10/09 02:56:33;;;;;;;1999.90;999.90;;;;;;;13.33;100.00;98511.53;4971852;28;20526;-78
2022/10/09 02:58:58;;;;;;;1999.90;999.90;;;;;;;13.38;100.00;98520.50;4972274;28;20085;-79
2022/10/09 03:01:24;;;;;;;1999.90;999.90;;;;;;;13.40;100.00;98518.28;4971849;28;20122;-79
2022/10/09 03:03:49;;;;;;;1999.90;999.90;;;;;;;13.34;100.00;98516.69;4971928;28;20029;-79
2022/10/09 03:06:22;;;;;;;1999.90;999.90;;;;;;;13.36;100.00;98519.16;4971882;28;20043;-78
2022/10/09 03:08:48;;;;;;;1999.90;999.90;;;;;;;13.32;100.00;98520.88;4972140;28;20085;-79
2022/10/09 03:11:17;;;;;;;1999.90;999.90;;;;;;;13.30;100.00;98525.84;4972043;28;20609;-78
2022/10/09 03:13:43;;;;;;;1999.90;999.90;;;;;;;13.35;100.00;98523.84;4972262;28;20380;-76
2022/10/09 03:16:17;;;;;;;1999.90;999.90;;;;;;;13.29;100.00;98524.22;4972142;28;20023;-79
2022/10/09 03:18:43;;;;;;;1999.90;999.90;;;;;;;13.29;100.00;98524.22;4972027;28;20105;-79
2022/10/09 03:21:11;;;;;;;1999.90;999.90;;;;;;;13.18;100.00;98528.25;4971742;28;20506;-79
2022/10/09 03:23:37;;;;;;;1999.90;999.90;;;;;;;13.29;100.00;98521.47;4971715;28;20114;-78
2022/10/09 03:26:06;;;;;;;1999.90;999.90;;;;;;;13.33;100.00;98525.25;4971926;28;20453;-79
2022/10/09 03:28:35;;;;;;;1999.90;999.90;;;;;;;13.28;100.00;98530.84;4971654;28;20437;-78
2022/10/09 03:31:00;;;;;;;1999.90;999.90;;;;;;;13.26;100.00;98530.31;4972045;28;20137;-78
2022/10/09 03:33:26;;;;;;;1999.90;999.90;;;;;;;13.32;100.00;98534.59;4971983;28;20458;-79
2022/10/09 03:35:51;;;;;;;1999.90;999.90;;;;;;;13.32;100.00;98535.44;4973630;28;20031;-78
2022/10/09 03:38:16;;;;;;;1999.90;999.90;;;;;;;13.25;100.00;98534.19;4973805;28;20547;-78
2022/10/09 03:40:42;;;;;;;1999.90;999.90;;;;;;;13.26;100.00;98536.63;4974949;28;20065;-78
2022/10/09 03:43:07;;;;;;;1999.90;999.90;;;;;;;13.24;100.00;98535.31;4974932;28;20030;-78
2022/10/09 03:45:33;;;;;;;1999.90;999.90;;;;;;;13.11;100.00;98525.88;4975056;28;20066;-79
2022/10/09 03:47:58;;;;;;;1999.90;999.90;;;;;;;13.09;100.00;98535.53;4976044;28;20477;-79
2022/10/09 03:50:24;;;;;;;1999.90;999.90;;;;;;;13.00;100.00;98537.28;4975213;28;20033;-78
2022/10/09 03:52:49;;;;;;;1999.90;999.90;;;;;;;13.08;100.00;98539.34;4975246;28;20523;-79
2022/10/09 03:55:15;;;;;;;1999.90;999.90;;;;;;;13.06;100.00;98547.09;4974982;28;20435;-78
2022/10/09 03:57:41;;;;;;;1999.90;999.90;;;;;;;12.99;100.00;98543.88;4974844;28;20033;-78
2022/10/09 04:00:07;;;;;;;1999.90;999.90;;;;;;;12.94;100.00;98541.22;4974592;28;20114;-78
2022/10/09 04:02:33;;;;;;;1999.90;999.90;;;;;;;12.97;100.00;98555.16;4974883;28;20115;-78
2022/10/09 04:04:59;;;;;;;1999.90;999.90;;;;;;;12.89;100.00;98548.41;4974669;28;20057;-78
2022/10/09 04:07:24;;;;;;;1999.90;999.90;;;;;;;12.98;100.00;98555.97;4974431;28;20043;-78
2022/10/09 04:09:50;;;;;;;1999.90;999.90;;;;;;;12.90;100.00;98551.97;4973060;28;20027;-77
2022/10/09 04:12:15;;;;;;;1999.90;999.90;;;;;;;12.83;100.00;98549.59;4974490;28;20050;-77
2022/10/09 04:14:40;;;;;;;1999.90;999.90;;;;;;;13.01;100.00;98553.44;4974569;28;20045;-78
2022/10/09 04:17:06;;;;;;;1999.90;999.90;;;;;;;13.02;100.00;98555.09;4974688;28;20122;-78
2022/10/09 04:19:31;;;;;;;1999.90;999.90;;;;;;;12.99;100.00;98552.13;4974122;28;20069;-79
2022/10/09 04:21:57;;;;;;;1999.90;999.90;;;;;;;12.99;100.00;98550.19;4974145;28;20026;-79
2022/10/09 04:24:22;;;;;;;1999.90;999.90;;;;;;;12.95;100.00;98551.06;4974252;28;20035;-78
2022/10/09 04:26:48;;;;;;;1999.90;999.90;;;;;;;12.97;100.00;98548.88;4974922;28;20034;-77
2022/10/09 04:29:13;;;;;;;1999.90;999.90;;;;;;;13.08;100.00;98545.69;4974743;28;20472;-79
2022/10/09 04:31:38;;;;;;;1999.90;999.90;;;;;;;13.06;100.00;98553.38;4975422;28;20555;-78
2022/10/09 04:34:04;;;;;;;1999.90;999.90;;;;;;;12.95;100.00;98551.88;4975350;28;20065;-77
2022/10/09 04:36:29;;;;;;;1999.90;999.90;;;;;;;13.02;100.00;98552.34;4975749;28;20601;-77
2022/10/09 04:38:54;;;;;;;1999.90;999.90;;;;;;;12.95;100.00;98551.06;4973533;28;20038;-80
2022/10/09 04:41:20;;;;;;;1999.90;999.90;;;;;;;12.90;100.00;98561.00;4973767;28;20031;-78
2022/10/09 04:43:47;;;;;;;1999.90;999.90;;;;;;;12.96;100.00;98558.19;4974108;28;20543;-79
2022/10/09 04:46:13;;;;;;;1999.90;999.90;;;;;;;13.06;100.00;98560.81;4974940;28;20062;-78
2022/10/09 04:48:41;;;;;;;1999.90;999.90;;;;;;;12.99;100.00;98560.34;4982673;28;20023;-79
2022/10/09 04:51:06;;;;;;;1999.90;999.90;;;;;;;12.84;100.00;98556.69;4979709;28;20480;-78
2022/10/09 04:53:33;;;;;;;1999.90;999.90;;;;;;;12.90;100.00;98558.25;4975157;28;20035;-77
2022/10/09 04:56:01;;;;;;;1999.90;999.90;;;;;;;12.93;100.00;98561.53;4974495;28;20052;-78
2022/10/09 04:58:26;;;;;;;1999.90;999.90;;;;;;;12.96;100.00;98563.69;4973968;28;20443;-76
2022/10/09 05:00:52;;;;;;;1999.90;999.90;;;;;;;13.10;100.00;98564.59;4973843;28;20054;-78
2022/10/09 05:03:17;;;;;;;1999.90;999.90;;;;;;;13.10;100.00;98568.19;4973707;28;20025;-78
2022/10/09 05:05:42;;;;;;;1999.90;999.90;;;;;;;13.12;100.00;98562.41;4973810;28;20026;-78
2022/10/09 05:08:08;;;;;;;1999.90;999.90;;;;;;;13.13;100.00;98581.31;4973290;28;20055;-79
2022/10/09 05:10:33;;;;;;;1999.90;999.90;;;;;;;13.07;100.00;98578.91;4973702;28;20365;-78
2022/10/09 05:12:59;;;;;;;1999.90;999.90;;;;;;;13.13;100.00;98580.50;4973795;28;20769;-80
2022/10/09 05:15:24;;;;;;;1999.90;999.90;;;;;;;13.12;100.00;98579.72;4972003;28;20103;-79
2022/10/09 05:17:51;;;;;;;1999.90;999.90;;;;;;;13.11;100.00;98589.06;4973795;28;20078;-78
2022/10/09 05:20:16;;;;;;;1999.90;999.90;;;;;;;13.09;100.00;98587.72;4973291;28;20031;-78
2022/10/09 05:22:45;;;;;;;1999.90;999.90;;;;;;;13.05;100.00;98589.38;4973461;28;20027;-78
2022/10/09 05:25:11;;;;;;;1999.90;999.90;;;;;;;13.02;100.00;98595.47;4973589;28;20031;-78
2022/10/09 05:27:36;;;;;;;1999.90;999.90;;;;;;;13.01;100.00;98600.13;4974156;28;20105;-80
2022/10/09 05:30:04;;;;;;;1999.90;999.90;;;;;;;13.07;100.00;98598.94;4963151;28;20031;-79
2022/10/09 05:32:29;;;;;;;1999.90;999.90;;;;;;;13.06;100.00;98602.81;4972722;28;20038;-78
2022/10/09 05:34:55;;;;;;;1999.90;999.90;;;;;;;12.95;100.00;98603.25;4968556;28;20062;-78
2022/10/09 05:37:21;;;;;;;1999.90;999.90;;;;;;;12.94;100.00;98604.38;4991878;28;20053;-80
2022/10/09 05:39:46;;;;;;;1999.90;999.90;;;;;;;12.96;100.00;98604.88;4976915;28;20031;-78
2022/10/09 05:42:11;;;;;;;1999.90;999.90;;;;;;;13.05;100.00;98627.84;4973686;28;20559;-79
2022/10/09 05:44:37;;;;;;;1999.90;999.90;;;;;;;13.00;100.00;98634.19;4971946;28;20029;-78
2022/10/09 05:47:02;;;;;;;1999.90;999.90;;;;;;;12.97;100.00;98626.53;4954920;29;20023;-78
2022/10/09 05:49:28;;;;;;;1999.90;999.90;;;;;;;13.02;100.00;98626.50;4953378;28;20030;-78
2022/10/09 05:51:54;;;;;;;1999.90;999.90;;;;;;;12.86;100.00;98634.13;4952889;28;20027;-78
2022/10/09 05:54:20;;;;;;;1999.90;999.90;;;;;;;12.97;100.00;98632.03;4953638;29;20070;-77
2022/10/09 05:56:46;;;;;;;1999.90;999.90;;;;;;;12.97;100.00;98639.47;4959272;28;20039;-78
2022/10/09 05:59:18;;;;;;;1999.90;999.90;;;;;;;12.98;100.00;98632.84;4976447;28;20073;-76
2022/10/09 06:01:47;;;;;;;1999.90;999.90;;;;;;;13.01;100.00;98626.78;4974032;28;20062;-78
2022/10/09 06:04:15;;;;;;;1999.90;999.90;;;;;;;13.05;100.00;98636.06;4971895;28;20031;-78
2022/10/09 06:06:41;;;;;;;1999.90;999.90;;;;;;;13.11;100.00;98637.66;4979027;28;20049;-80
2022/10/09 06:09:08;;;;;;;1999.90;999.90;;;;;;;13.17;100.00;98642.81;4985479;28;20125;-76
2022/10/09 06:11:37;;;;;;;1999.90;999.90;;;;;;;13.22;100.00;98650.97;4986256;28;20019;-79
2022/10/09 06:14:04;;;;;;;1999.90;999.90;;;;;;;13.29;100.00;98647.84;4989810;28;20076;-78
2022/10/09 06:16:32;;;;;;;1999.90;999.90;;;;;;;13.41;100.00;98643.56;4983075;28;20480;-80
2022/10/09 06:18:58;;;;;;;1999.90;999.90;;;;;;;13.43;100.00;98654.28;4987577;28;20071;-81
2022/10/09 06:21:27;;;;;;;1999.90;999.90;;;;;;;13.48;100.00;98654.19;4988617;28;20030;-79
2022/10/09 06:23:56;;;;;;;1999.90;999.90;;;;;;;13.51;100.00;98661.84;4981062;28;20034;-80
2022/10/09 06:26:22;;;;;;;1999.90;999.90;;;;;;;13.54;100.00;98658.50;4987505;28;20050;-80
2022/10/09 06:28:48;;;;;;;1999.90;999.90;;;;;;;13.68;100.00;98667.66;4983589;28;20101;-79
2022/10/09 06:31:20;;;;;;;1999.90;999.90;;;;;;;13.66;100.00;98660.78;4984699;28;20022;-80
2022/10/09 06:33:47;;;;;;;1999.90;999.90;;;;;;;13.86;100.00;98666.81;4980352;28;20031;-78
2022/10/09 06:36:15;;;;;;;1999.90;999.90;;;;;;;13.90;100.00;98667.03;4981056;28;20033;-79
2022/10/09 06:38:43;;;;;;;1999.90;999.90;;;;;;;14.14;100.00;98672.41;4983214;28;20030;-79
2022/10/09 06:41:11;;;;;;;1999.90;999.90;;;;;;;14.18;100.00;98671.53;4985320;28;20035;-79
2022/10/09 06:43:37;;;;;;;1999.90;999.90;;;;;;;14.05;100.00;98661.28;4985450;28;20026;-77
2022/10/09 06:46:06;;;;;;;1999.90;999.90;;;;;;;14.12;100.00;98674.66;4981605;28;20476;-78
2022/10/09 06:48:33;;;;;;;1999.90;999.90;;;;;;;14.10;100.00;98674.94;4990352;28;20022;-81
2022/10/09 06:51:01;;;;;;;1999.90;999.90;;;;;;;14.20;100.00;98683.03;4985410;28;20045;-80
2022/10/09 06:53:26;;;;;;;1999.90;999.90;;;;;;;14.03;100.00;98688.28;4975084;28;20030;-82
2022/10/09 06:55:53;;;;;;;1999.90;999.90;;;;;;;13.98;100.00;98684.78;4990714;28;20035;-85
2022/10/09 06:58:18;;;;;;;1999.90;999.90;;;;;;;14.19;100.00;98686.09;4997583;28;20035;-85
2022/10/09 07:00:43;;;;;;;1999.90;999.90;;;;;;;14.44;100.00;98688.41;4993089;28;20053;-83
2022/10/09 07:03:09;;;;;;;1999.90;999.90;;;;;;;14.67;100.00;98692.97;4994512;28;20068;-86
2022/10/09 07:05:34;;;;;;;1999.90;999.90;;;;;;;14.57;100.00;98695.91;4978884;28;20038;-84
2022/10/09 07:07:59;;;;;;;1999.90;999.90;;;;;;;14.71;100.00;98699.50;4999373;28;20039;-84
2022/10/09 07:10:26;;;;;;;1999.90;999.90;;;;;;;14.79;100.00;98701.53;5003120;28;20031;-85
2022/10/09 07:12:51;;;;;;;1999.90;999.90;;;;;;;14.98;100.00;98710.53;5009565;28;20027;-81
2022/10/09 07:15:16;;;;;;;1999.90;999.90;;;;;;;15.09;100.00;98711.19;5011222;28;20037;-83
2022/10/09 07:17:42;;;;;;;1999.90;999.90;;;;;;;15.00;100.00;98722.06;4998176;28;20520;-79
2022/10/09 07:20:07;;;;;;;1999.90;999.90;;;;;;;14.90;100.00;98722.28;4978161;28;20045;-77
2022/10/09 07:22:32;;;;;;;1999.90;999.90;;;;;;;14.79;100.00;98725.50;4987912;28;20038;-75
2022/10/09 07:24:58;;;;;;;1999.90;999.90;;;;;;;14.68;100.00;98735.09;4993346;28;20026;-77
2022/10/09 07:27:23;;;;;;;1999.90;999.90;;;;;;;14.57;100.00;98731.69;4994208;28;20026;-76
2022/10/09 07:29:50;;;;;;;1999.90;999.90;;;;;;;14.75;100.00;98732.78;4994081;28;20041;-77
2022/10/09 07:32:15;;;;;;;1999.90;999.90;;;;;;;14.81;100.00;98735.13;4994197;28;20498;-77
2022/10/09 07:34:40;;;;;;;1999.90;999.90;;;;;;;14.83;100.00;98743.06;4980007;28;20031;-75
2022/10/09 07:37:06;;;;;;;1999.90;999.90;;;;;;;14.77;100.00;98742.34;4975947;28;20130;-76
2022/10/09 07:39:33;;;;;;;1999.90;999.90;;;;;;;14.92;100.00;98744.00;4974145;28;20196;-74
2022/10/09 07:41:59;;;;;;;1999.90;999.90;;;;;;;15.00;100.00;98752.38;4983944;28;20029;-74
2022/10/09 07:44:24;;;;;;;1999.90;999.90;;;;;;;15.04;100.00;98758.09;4974870;28;20403;-75
2022/10/09 07:46:50;;;;;;;1999.90;999.90;;;;;;;15.07;100.00;98760.25;4982091;28;20030;-75
2022/10/09 07:49:16;;;;;;;1999.90;999.90;;;;;;;15.15;100.00;98759.56;4982744;28;20030;-75
2022/10/09 07:51:41;;;;;;;1999.90;999.90;;;;;;;15.16;100.00;98754.88;4982425;28;20022;-74
2022/10/09 07:54:06;;;;;;;1999.90;999.90;;;;;;;15.14;100.00;98768.13;4981129;28;20054;-74
2022/10/09 07:56:34;;;;;;;1999.90;999.90;;;;;;;15.17;100.00;98767.50;4984179;28;20022;-73
2022/10/09 07:59:02;;;;;;;1999.90;999.90;;;;;;;15.17;100.00;98771.06;4979522;28;20042;-74
2022/10/09 08:01:29;;;;;;;1999.90;999.90;;;;;;;15.28;100.00;98769.78;4981086;28;20034;-75
2022/10/09 08:03:55;;;;;;;1999.90;999.90;;;;;;;15.30;100.00;98774.97;4974097;28;20066;-77
2022/10/09 08:06:21;;;;;;;1999.90;999.90;;;;;;;15.19;100.00;98777.09;4976863;28;20145;-75
2022/10/09 08:08:51;;;;;;;1999.90;999.90;;;;;;;15.22;100.00;98779.28;4975437;28;20121;-76
2022/10/09 08:11:18;;;;;;;1999.90;999.90;;;;;;;15.16;100.00;98777.69;4981346;28;20023;-76
2022/10/09 08:13:45;;;;;;;1999.90;999.90;;;;;;;14.99;100.00;98778.31;4983002;28;20037;-76
2022/10/09 08:16:11;;;;;;;1999.90;999.90;;;;;;;15.07;100.00;98768.50;4981372;28;20031;-77
2022/10/09 08:18:36;;;;;;;1999.90;999.90;;;;;;;15.15;100.00;98773.34;4982085;28;20521;-76
2022/10/09 08:21:08;;;;;;;1999.90;999.90;;;;;;;15.24;100.00;98778.94;4981314;28;20470;-76
2022/10/09 08:23:34;;;;;;;1999.90;999.90;;;;;;;15.10;100.00;98780.88;4977704;28;20105;-74
2022/10/09 08:26:00;;;;;;;1999.90;999.90;;;;;;;15.00;100.00;98776.38;4982111;28;20029;-74
2022/10/09 08:28:25;;;;;;;1999.90;999.90;;;;;;;15.09;100.00;98771.78;4979066;28;20039;-75
2022/10/09 08:30:51;;;;;;;1999.90;999.90;;;;;;;15.19;100.00;98774.34;4974712;28;20116;-75
2022/10/09 08:33:20;;;;;;;1999.90;999.90;;;;;;;15.19;100.00;98776.31;4973086;28;20038;-75
2022/10/09 08:35:46;;;;;;;1999.90;999.90;;;;;;;15.16;100.00;98779.66;4978669;28;20031;-74
2022/10/09 08:38:11;;;;;;;1999.90;999.90;;;;;;;15.03;100.00;98784.03;4976274;28;20027;-75
2022/10/09 08:40:47;;;;;;;1999.90;999.90;;;;;;;15.05;100.00;98792.00;4979100;28;20431;-75
2022/10/09 08:43:13;;;;;;;;;;;;;;;15.09;100.00;98793.03;4980059;28;20498;-75
2022/10/09 08:45:40;;;;;;;1999.90;999.90;;;;;;;15.09;100.00;98791.09;4975771;28;19981;-83
2022/10/09 08:48:13;;;;;;;1999.90;999.90;;;;;;;15.15;100.00;98791.81;4984508;28;20428;-74
2022/10/09 08:50:44;;;;;;;1999.90;999.90;;;;;;;15.08;100.00;98786.69;4971291;28;20094;-75
2022/10/09 08:53:37;;;;;;;1999.90;999.90;;;;;;;15.17;100.00;98786.78;4972119;28;20109;-75
2022/10/09 08:56:08;;;;;;;1999.90;999.90;;;;;;;15.24;100.00;98792.72;4956998;28;20073;-75
2022/10/09 08:58:38;;;;;;;1999.90;999.90;;;;;;;15.31;100.00;98798.66;4971715;28;20034;-76
2022/10/09 09:01:21;;;;;;;1999.90;999.90;;;;;;;15.33;100.00;98793.66;4976776;28;20844;-74
2022/10/09 09:04:08;;;;;;;1999.90;999.90;;;;;;;15.58;100.00;98804.22;4971431;28;20027;-75
2022/10/09 09:06:36;;;;;;;1999.90;999.90;;;;;;;15.73;100.00;98800.31;4980590;28;20062;-74
2022/10/09 09:09:27;;;;;;;1999.90;999.90;;;;;;;15.93;100.00;98803.47;4985423;28;20015;-75
2022/10/09 09:12:00;;;;;;;1999.90;999.90;;;;;;;16.03;100.00;98803.25;4988594;28;20031;-75
2022/10/09 09:14:54;;;;;;;1999.90;999.90;;;;;;;16.10;100.00;98810.28;4972470;28;20043;-74
2022/10/09 09:17:25;;;;;;;1999.90;999.90;;;;;;;16.11;100.00;98804.44;4975627;28;20837;-76
2022/10/09 09:19:59;;;;;;;1999.90;999.90;;;;;;;16.21;100.00;98804.22;4971897;28;20492;-75
2022/10/09 09:22:26;;;;;;;1999.90;999.90;;;;;;;16.51;100.00;98802.66;4973163;28;20035;-77
2022/10/09 09:24:54;;;;;;;1999.90;999.90;;;;;;;16.73;100.00;98801.91;4980345;28;20121;-76
2022/10/09 09:27:25;;;;;;;1999.90;999.90;;;;;;;16.80;100.00;98805.03;4972483;28;20109;-75
2022/10/09 09:30:00;;;;;;;1999.90;999.90;;;;;;;17.01;100.00;98801.44;4971097;28;20035;-78
2022/10/09 09:32:29;;;;;;;1999.90;999.90;;;;;;;16.93;100.00;98813.25;4977757;28;20539;-78
2022/10/09 09:35:11;;;;;;;1999.90;999.90;;;;;;;16.96;100.00;98807.09;4976133;28;20034;-79
2022/10/09 09:37:36;;;;;;;1999.90;999.90;;;;;;;16.89;100.00;98806.72;4978504;28;20037;-78
2022/10/09 09:40:02;;;;;;;1999.90;999.90;;;;;;;16.78;100.00;98808.13;4976328;28;20038;-79
2022/10/09 09:42:28;;;;;;;1999.90;999.90;;;;;;;16.81;100.00;98810.25;4976698;28;20030;-78
2022/10/09 09:44:59;;;;;;;1999.90;999.90;;;;;;;16.92;100.00;98803.31;4978593;28;20170;-79
2022/10/09 09:47:44;;;;;;;1999.90;999.90;;;;;;;16.99;100.00;98803.69;4976613;28;20503;-78
2022/10/09 09:50:10;;;;;;;1999.90;999.90;;;;;;;16.97;100.00;98810.69;4956860;28;20114;-76
2022/10/09 09:52:44;;;;;;;1999.90;999.90;;;;;;;17.06;100.00;98804.06;4974697;28;20125;-75
2022/10/09 09:55:28;;;;;;;1999.90;999.90;;;;;;;17.00;100.00;98797.06;4970536;28;20043;-75
2022/10/09 09:58:12;;;;;;;1999.90;999.90;;;;;;;17.25;100.00;98805.78;4950368;28;20058;-76
2022/10/09 10:00:37;;;;;;;1999.90;999.90;;;;;;;17.36;100.00;98796.88;4958316;28;20114;-75
2022/10/09 10:03:15;;;;;;;1999.90;999.90;;;;;;;17.59;100.00;98795.72;4976474;28;20113;-75
2022/10/09 10:05:43;;;;;;;1999.90;999.90;;;;;;;17.67;100.00;98807.16;4970291;28;20037;-75
2022/10/09 10:08:12;;;;;;;1999.90;999.90;;;;;;;17.73;100.00;98806.66;4970567;28;20093;-76
2022/10/09 10:10:44;;;;;;;1999.90;999.90;;;;;;;17.73;100.00;98801.13;4971615;28;20065;-74
2022/10/09 10:13:18;;;;;;;1999.90;999.90;;;;;;;17.55;100.00;98794.72;4970951;28;20031;-74
2022/10/09 10:15:51;;;;;;;1999.90;999.90;;;;;;;17.50;100.00;98802.31;4970460;28;20071;-75
2022/10/09 10:18:18;;;;;;;1999.90;999.90;;;;;;;17.49;100.00;98795.16;4971088;28;20118;-75
2022/10/09 10:20:47;;;;;;;1999.90;999.90;;;;;;;17.60;100.00;98802.06;4969878;28;20070;-74
2022/10/09 10:23:32;;;;;;;1999.90;999.90;;;;;;;17.26;100.00;98791.63;4972783;28;20086;-75
2022/10/09 10:26:02;;;;;;;1999.90;999.90;;;;;;;17.48;100.00;98793.50;4955093;28;20034;-74
2022/10/09 10:28:34;;;;;;;1999.90;999.90;;;;;;;17.43;100.00;98790.91;4970463;28;20110;-74
2022/10/09 10:31:03;;;;;;;1999.90;999.90;;;;;;;17.27;100.00;98789.69;4970234;28;20027;-75
2022/10/09 10:33:31;;;;;;;1999.90;999.90;;;;;;;17.40;100.00;98786.00;4970386;28;20034;-74
2022/10/09 10:35:58;;;;;;;1999.90;999.90;;;;;;;17.46;100.00;98791.09;4954556;28;20511;-75
2022/10/09 10:38:35;;;;;;;1999.90;999.90;;;;;;;17.13;100.00;98785.06;4970459;28;20033;-74
2022/10/09 10:41:19;;;;;;;1999.90;999.90;;;;;;;16.94;100.00;98780.91;4969723;28;20084;-74
2022/10/09 10:43:53;;;;;;;1999.90;999.90;;;;;;;16.88;100.00;98777.47;4970109;28;20436;-74
2022/10/09 10:46:30;;;;;;;1999.90;999.90;;;;;;;17.07;100.00;98775.28;4973121;28;20057;-75
2022/10/09 10:48:58;;;;;;;1999.90;999.90;;;;;;;17.17;100.00;98776.13;4973239;28;20031;-75
2022/10/09 10:51:29;;;;;;;1999.90;999.90;;;;;;;17.27;100.00;98782.22;4974222;28;20107;-74
2022/10/09 10:54:20;;;;;;;1999.90;999.90;;;;;;;17.27;100.00;98776.69;4958395;28;20049;-74